createdAt,value
2018-06-13T00:02:32.246Z,17.00
2018-06-13T00:05:00.711Z,17.00
2018-06-13T00:07:32.814Z,17.00
2018-06-13T00:10:03.413Z,17.00
2018-06-13T00:15:01.032Z,17.00
2018-06-13T00:17:33.482Z,17.00
2018-06-13T00:20:03.693Z,16.90
2018-06-13T00:22:34.016Z,16.90
2018-06-13T00:25:02.785Z,16.90
2018-06-13T00:27:34.242Z,16.90
2018-06-13T00:30:04.671Z,16.90
2018-06-13T00:32:34.169Z,16.90
2018-06-13T00:35:03.861Z,16.80
2018-06-13T00:37:35.399Z,16.80
2018-06-13T00:40:03.988Z,16.90
2018-06-13T00:42:34.381Z,16.80
2018-06-13T00:45:03.545Z,16.80
2018-06-13T00:47:34.156Z,16.80
2018-06-13T00:50:04.139Z,16.80
2018-06-13T00:52:33.779Z,16.80
2018-06-13T00:55:04.008Z,16.80
2018-06-13T00:57:33.669Z,16.80
2018-06-13T01:00:03.842Z,16.80
2018-06-13T01:02:34.215Z,16.80
2018-06-13T01:05:02.654Z,16.80
2018-06-13T01:07:31.081Z,16.70
2018-06-13T01:09:59.512Z,16.70
2018-06-13T01:12:35.275Z,16.70
2018-06-13T01:15:03.789Z,16.70
2018-06-13T01:17:33.736Z,16.80
2018-06-13T01:20:04.449Z,16.80
2018-06-13T01:22:34.409Z,16.80
2018-06-13T01:25:04.087Z,16.80
2018-06-13T01:27:37.301Z,16.80
2018-06-13T01:30:06.262Z,16.80
2018-06-13T01:32:34.800Z,16.80
2018-06-13T01:35:03.310Z,16.80
2018-06-13T01:40:05.368Z,16.80
2018-06-13T01:42:34.288Z,16.80
2018-06-13T01:45:03.768Z,16.80
2018-06-13T01:47:34.141Z,16.80
2018-06-13T01:50:04.061Z,16.80
2018-06-13T01:52:34.773Z,16.80
2018-06-13T01:55:03.993Z,16.70
2018-06-13T01:57:33.444Z,16.60
2018-06-13T02:00:02.016Z,16.60
2018-06-13T02:02:30.468Z,16.60
2018-06-13T02:05:05.251Z,16.60
2018-06-13T02:07:33.752Z,16.60
2018-06-13T02:10:02.270Z,16.60
2018-06-13T02:12:35.993Z,16.60
2018-06-13T02:15:04.525Z,16.70
2018-06-13T02:17:33.904Z,16.70
2018-06-13T02:20:05.628Z,16.70
2018-06-13T02:22:34.057Z,16.70
2018-06-13T02:25:02.857Z,16.70
2018-06-13T02:27:34.867Z,16.70
2018-06-13T02:30:04.323Z,16.70
2018-06-13T02:32:33.861Z,16.70
2018-06-13T02:35:04.452Z,16.70
2018-06-13T02:37:32.962Z,16.70
2018-06-13T02:45:05.117Z,16.60
2018-06-13T02:47:34.262Z,16.60
2018-06-13T02:50:03.941Z,16.60
2018-06-13T02:52:32.370Z,16.60
2018-06-13T02:55:04.474Z,16.60
2018-06-13T03:00:29.004Z,16.60
2018-06-13T03:03:01.800Z,16.60
2018-06-13T03:05:33.692Z,16.60
2018-06-13T03:08:04.826Z,16.60
2018-06-13T03:10:34.312Z,16.60
2018-06-13T03:13:04.142Z,16.70
2018-06-13T03:18:03.682Z,16.70
2018-06-13T03:20:36.625Z,16.70
2018-06-13T03:23:06.072Z,16.70
2018-06-13T03:25:35.376Z,16.70
2018-06-13T03:28:04.283Z,16.70
2018-06-13T03:30:35.638Z,16.70
2018-06-13T03:33:04.158Z,16.70
2018-06-13T03:35:32.977Z,16.80
2018-06-13T03:38:04.806Z,16.80
2018-06-13T03:40:34.344Z,16.80
2018-06-13T03:43:04.102Z,16.80
2018-06-13T03:45:33.948Z,16.80
2018-06-13T03:48:05.446Z,16.80
2018-06-13T03:50:33.954Z,16.80
2018-06-13T03:53:04.750Z,16.80
2018-06-13T03:55:35.096Z,16.80
2018-06-13T03:58:03.637Z,16.70
2018-06-13T04:00:33.234Z,16.70
2018-06-13T04:03:07.129Z,16.70
2018-06-13T04:05:35.541Z,16.60
2018-06-13T04:08:04.417Z,16.60
2018-06-13T04:10:34.070Z,16.60
2018-06-13T04:13:03.724Z,16.60
2018-06-13T04:15:36.357Z,16.70
2018-06-13T04:18:05.820Z,16.70
2018-06-13T04:20:34.356Z,16.70
2018-06-13T04:23:04.850Z,16.70
2018-06-13T04:25:34.162Z,16.70
2018-06-13T04:28:03.823Z,16.70
2018-06-13T04:30:34.808Z,16.70
2018-06-13T04:33:04.613Z,16.70
2018-06-13T04:35:34.177Z,16.70
2018-06-13T04:38:05.884Z,16.70
2018-06-13T04:40:34.328Z,16.70
2018-06-13T04:43:03.169Z,16.70
2018-06-13T04:45:32.939Z,16.70
2018-06-13T04:48:01.674Z,16.70
2018-06-13T04:50:33.354Z,16.70
2018-06-13T04:53:03.321Z,16.70
2018-06-13T04:55:34.732Z,16.80
2018-06-13T04:58:04.636Z,16.70
2018-06-13T05:00:34.082Z,16.80
2018-06-13T05:03:03.749Z,16.80
2018-06-13T05:05:34.170Z,16.80
2018-06-13T05:08:02.980Z,16.80
2018-06-13T05:10:35.220Z,16.80
2018-06-13T05:13:04.953Z,16.80
2018-06-13T05:15:33.833Z,16.80
2018-06-13T05:18:03.909Z,16.80
2018-06-13T05:20:32.423Z,16.70
2018-06-13T05:23:03.600Z,16.60
2018-06-13T05:25:33.838Z,16.60
2018-06-13T05:28:04.377Z,16.50
2018-06-13T05:30:33.939Z,16.40
2018-06-13T05:33:04.469Z,16.40
2018-06-13T05:35:33.925Z,16.40
2018-06-13T05:38:04.241Z,16.40
2018-06-13T05:40:36.143Z,16.40
2018-06-13T05:43:05.007Z,16.40
2018-06-13T05:45:34.658Z,16.30
2018-06-13T05:48:04.426Z,16.30
2018-06-13T05:50:33.156Z,16.30
2018-06-13T05:53:05.216Z,16.40
2018-06-13T05:55:34.158Z,16.40
2018-06-13T05:58:04.501Z,16.40
2018-06-13T06:00:34.207Z,16.40
2018-06-13T06:03:05.889Z,16.50
2018-06-13T06:05:34.442Z,16.50
2018-06-13T06:08:03.178Z,16.50
2018-06-13T06:10:33.484Z,16.60
2018-06-13T06:13:02.985Z,16.60
2018-06-13T06:15:31.467Z,16.60
2018-06-13T06:17:59.952Z,16.70
2018-06-13T06:20:28.509Z,16.70
2018-06-13T06:22:56.907Z,16.70
2018-06-13T06:25:25.409Z,16.80
2018-06-13T06:27:54.102Z,16.80
2018-06-13T06:30:22.591Z,16.90
2018-06-13T06:32:51.185Z,16.90
2018-06-13T06:35:22.837Z,16.90
2018-06-13T06:37:51.958Z,16.90
2018-06-13T06:40:20.878Z,16.90
2018-06-13T06:42:51.209Z,16.90
2018-06-13T06:45:21.163Z,17.00
2018-06-13T06:47:50.758Z,17.00
2018-06-13T06:50:21.522Z,17.00
2018-06-13T06:52:50.272Z,17.10
2018-06-13T06:55:18.985Z,17.10
2018-06-13T06:57:47.967Z,17.10
2018-06-13T07:00:16.405Z,17.10
2018-06-13T07:02:57.326Z,17.10
2018-06-13T07:05:25.708Z,17.20
2018-06-13T07:07:54.722Z,17.10
2018-06-13T07:10:23.152Z,17.10
2018-06-13T07:12:51.550Z,17.20
2018-06-13T07:15:20.016Z,17.20
2018-06-13T07:17:48.517Z,17.20
2018-06-13T07:20:16.990Z,17.20
2018-06-13T07:22:45.337Z,17.30
2018-06-13T07:25:13.700Z,17.30
2018-06-13T07:27:42.141Z,17.30
2018-06-13T07:30:10.589Z,17.40
2018-06-13T07:32:39.394Z,17.30
2018-06-13T07:35:08.009Z,17.40
2018-06-13T07:37:36.581Z,17.40
2018-06-13T07:40:05.102Z,17.50
2018-06-13T07:42:33.633Z,17.50
2018-06-13T07:45:02.603Z,17.50
2018-06-13T07:47:31.405Z,17.40
2018-06-13T07:49:59.806Z,17.40
2018-06-13T07:52:28.273Z,17.50
2018-06-13T07:54:56.664Z,17.50
2018-06-13T07:57:25.106Z,17.50
2018-06-13T07:59:53.482Z,17.60
2018-06-13T08:04:50.118Z,17.60
2018-06-13T08:07:18.526Z,17.70
2018-06-13T08:09:46.913Z,17.70
2018-06-13T08:12:15.968Z,17.70
2018-06-13T08:14:44.477Z,17.70
2018-06-13T08:17:13.296Z,17.70
2018-06-13T08:19:41.925Z,17.60
2018-06-13T08:22:10.421Z,17.60
2018-06-13T08:24:50.076Z,17.70
2018-06-13T08:27:18.545Z,17.70
2018-06-13T08:29:47.084Z,17.70
2018-06-13T08:32:15.968Z,17.60
2018-06-13T08:34:44.693Z,17.60
2018-06-13T08:37:13.121Z,17.60
2018-06-13T08:39:41.596Z,17.70
2018-06-13T08:42:10.402Z,17.80
2018-06-13T08:44:38.766Z,17.90
2018-06-13T08:47:07.113Z,17.90
2018-06-13T08:49:35.512Z,18.00
2018-06-13T08:52:03.993Z,18.10
2018-06-13T08:54:32.477Z,18.20
2018-06-13T08:57:01.085Z,18.20
2018-06-13T08:59:29.576Z,18.30
2018-06-13T09:01:58.114Z,18.30
2018-06-13T09:04:26.664Z,18.40
2018-06-13T09:07:14.234Z,18.40
2018-06-13T09:09:46.210Z,18.40
2018-06-13T09:12:14.770Z,18.30
2018-06-13T09:14:58.228Z,18.20
2018-06-13T09:17:26.646Z,18.20
2018-06-13T09:19:55.072Z,18.30
2018-06-13T09:22:23.540Z,18.30
2018-06-13T09:24:51.908Z,18.30
2018-06-13T09:27:20.400Z,18.40
2018-06-13T09:29:48.853Z,18.40
2018-06-13T09:32:43.488Z,18.40
2018-06-13T09:35:11.978Z,18.40
2018-06-13T09:37:56.472Z,18.40
2018-06-13T09:40:28.200Z,18.40
2018-06-13T09:45:41.427Z,18.40
2018-06-13T09:48:42.272Z,18.40
2018-06-13T09:51:10.740Z,18.40
2018-06-13T09:53:39.378Z,18.30
2018-06-13T09:58:55.018Z,18.30
2018-06-13T10:01:28.952Z,18.30
2018-06-13T10:03:57.237Z,18.40
2018-06-13T10:06:27.778Z,18.40
2018-06-13T10:08:56.249Z,18.40
2018-06-13T10:14:29.770Z,18.40
2018-06-13T10:16:58.341Z,18.50
2018-06-13T10:19:26.825Z,18.50
2018-06-13T10:21:55.200Z,18.50
2018-06-13T10:24:23.757Z,18.60
2018-06-13T10:26:52.174Z,18.70
2018-06-13T10:29:20.546Z,18.70
2018-06-13T10:31:55.630Z,18.70
2018-06-13T10:34:24.055Z,18.70
2018-06-13T10:36:52.530Z,18.70
2018-06-13T10:39:26.734Z,18.60
2018-06-13T10:41:55.114Z,18.60
2018-06-13T10:44:23.578Z,18.60
2018-06-13T10:46:52.024Z,18.60
2018-06-13T10:49:20.438Z,18.60
2018-06-13T10:51:49.933Z,18.60
2018-06-13T10:54:18.438Z,18.70
2018-06-13T10:56:46.824Z,18.70
2018-06-13T10:59:15.255Z,18.80
2018-06-13T11:04:23.603Z,19.00
2018-06-13T11:06:52.116Z,19.10
2018-06-13T11:09:20.621Z,19.20
2018-06-13T11:11:49.070Z,19.30
2018-06-13T11:14:17.602Z,19.30
2018-06-13T11:16:46.166Z,19.30
2018-06-13T11:19:25.046Z,19.20
2018-06-13T11:21:53.537Z,19.20
2018-06-13T11:24:22.026Z,19.10
2018-06-13T11:26:53.699Z,19.10
2018-06-13T11:29:22.295Z,19.10
2018-06-13T11:31:55.097Z,19.10
2018-06-13T11:34:23.640Z,19.10
2018-06-13T11:36:52.612Z,19.10
2018-06-13T11:39:20.970Z,19.10
2018-06-13T11:41:49.466Z,19.00
2018-06-13T11:44:17.938Z,18.90
2018-06-13T11:46:46.357Z,18.90
2018-06-13T11:49:14.909Z,18.90
2018-06-13T11:51:43.548Z,18.90
2018-06-13T11:54:12.263Z,18.90
2018-06-13T11:56:41.951Z,18.90
2018-06-13T11:59:10.375Z,18.90
2018-06-13T12:04:24.416Z,19.10
2018-06-13T12:06:54.328Z,19.20
2018-06-13T12:09:31.208Z,19.30
2018-06-13T12:12:00.209Z,19.30
2018-06-13T12:14:28.943Z,19.40
2018-06-13T12:16:57.987Z,19.50
2018-06-13T12:19:26.650Z,19.50
2018-06-13T12:21:56.358Z,19.60
2018-06-13T12:24:25.075Z,19.70
2018-06-13T12:26:53.538Z,19.90
2018-06-13T12:29:21.948Z,20.00
2018-06-13T12:31:51.609Z,20.20
2018-06-13T12:34:20.777Z,20.20
2018-06-13T12:36:49.278Z,20.20
2018-06-13T12:39:19.616Z,20.30
2018-06-13T12:41:51.686Z,20.30
2018-06-13T12:44:20.136Z,20.20
2018-06-13T12:46:49.302Z,20.20
2018-06-13T12:49:20.052Z,20.20
2018-06-13T12:51:52.717Z,20.20
2018-06-13T12:54:26.735Z,20.20
2018-06-13T12:56:58.500Z,20.10
2018-06-13T12:59:28.372Z,20.10
2018-06-13T13:01:57.761Z,20.20
2018-06-13T13:04:26.771Z,20.10
2018-06-13T13:06:58.525Z,20.20
2018-06-13T13:09:30.673Z,20.20
2018-06-13T13:12:00.405Z,20.30
2018-06-13T13:14:32.815Z,20.30
2018-06-13T13:17:03.395Z,20.40
2018-06-13T13:19:32.058Z,20.40
2018-06-13T13:22:00.869Z,20.30
2018-06-13T13:24:32.472Z,20.20
2018-06-13T13:27:03.419Z,20.20
2018-06-13T13:29:32.653Z,20.20
2018-06-13T13:32:02.264Z,20.20
2018-06-13T13:34:30.833Z,20.30
2018-06-13T13:36:59.415Z,20.30
2018-06-13T13:39:28.668Z,20.40
2018-06-13T13:41:57.586Z,20.40
2018-06-13T13:44:26.940Z,20.40
2018-06-13T13:46:55.538Z,20.50
2018-06-13T13:49:26.061Z,20.40
2018-06-13T13:51:55.216Z,20.40
2018-06-13T13:54:25.834Z,20.40
2018-06-13T13:56:54.947Z,20.40
2018-06-13T13:59:23.579Z,20.40
2018-06-13T14:01:52.391Z,20.40
2018-06-13T14:04:22.984Z,20.40
2018-06-13T14:06:53.945Z,20.40
2018-06-13T14:09:23.150Z,20.40
2018-06-13T14:11:52.322Z,20.40
2018-06-13T14:16:49.616Z,20.50
2018-06-13T14:21:55.424Z,20.60
2018-06-13T14:24:23.969Z,20.60
2018-06-13T14:26:53.001Z,20.60
2018-06-13T14:29:21.880Z,20.60
2018-06-13T14:31:51.202Z,20.60
2018-06-13T14:34:19.710Z,20.60
2018-06-13T14:36:48.984Z,20.60
2018-06-13T14:39:18.353Z,20.60
2018-06-13T14:41:46.961Z,20.50
2018-06-13T14:44:16.221Z,20.60
2018-06-13T14:46:45.807Z,20.70
2018-06-13T14:49:15.164Z,20.60
2018-06-13T14:51:52.957Z,20.60
2018-06-13T14:54:31.805Z,20.50
2018-06-13T14:57:00.919Z,20.50
2018-06-13T14:59:30.751Z,20.50
2018-06-13T15:02:00.180Z,20.60
2018-06-13T15:04:34.757Z,20.50
2018-06-13T15:07:06.982Z,20.60
2018-06-13T15:09:36.286Z,20.60
2018-06-13T15:12:05.223Z,20.60
2018-06-13T15:14:35.293Z,20.50
2018-06-13T15:17:03.884Z,20.40
2018-06-13T15:19:34.000Z,20.40
2018-06-13T15:22:12.878Z,20.50
2018-06-13T15:24:45.905Z,20.50
2018-06-13T15:27:16.043Z,20.40
2018-06-13T15:29:44.905Z,20.40
2018-06-13T15:32:23.720Z,20.30
2018-06-13T15:34:52.187Z,20.30
2018-06-13T15:37:21.325Z,20.30
2018-06-13T15:39:56.827Z,20.30
2018-06-13T15:42:25.486Z,20.30
2018-06-13T15:45:02.179Z,20.30
2018-06-13T15:47:30.852Z,20.40
2018-06-13T15:49:59.318Z,20.40
2018-06-13T15:52:28.815Z,20.40
2018-06-13T15:54:57.334Z,20.50
2018-06-13T15:57:26.554Z,20.50
2018-06-13T16:00:09.277Z,20.60
2018-06-13T16:02:54.516Z,20.60
2018-06-13T16:05:23.897Z,20.60
2018-06-13T16:07:52.683Z,20.60
2018-06-13T16:10:31.301Z,20.60
2018-06-13T16:12:59.792Z,20.60
2018-06-13T16:15:28.262Z,20.60
2018-06-13T16:17:57.019Z,20.60
2018-06-13T16:20:25.461Z,20.60
2018-06-13T16:22:57.261Z,20.60
2018-06-13T16:25:26.049Z,20.60
2018-06-13T16:27:54.766Z,20.70
2018-06-13T16:30:23.340Z,20.70
2018-06-13T16:32:51.978Z,20.70
2018-06-13T16:35:20.380Z,20.70
2018-06-13T16:37:49.624Z,20.70
2018-06-13T16:40:20.120Z,20.70
2018-06-13T16:42:48.638Z,20.70
2018-06-13T16:45:17.854Z,20.60
2018-06-13T16:47:46.268Z,20.60
2018-06-13T16:50:25.924Z,20.50
2018-06-13T16:53:05.679Z,20.40
2018-06-13T16:55:35.149Z,20.30
2018-06-13T16:58:03.824Z,20.30
2018-06-13T17:00:32.714Z,20.20
2018-06-13T17:03:01.052Z,20.00
2018-06-13T17:05:29.965Z,20.00
2018-06-13T17:08:03.242Z,20.00
2018-06-13T17:10:31.735Z,20.00
2018-06-13T17:13:00.202Z,20.00
2018-06-13T17:15:28.772Z,19.90
2018-06-13T17:17:57.162Z,19.90
2018-06-13T17:22:53.605Z,20.00
2018-06-13T17:25:21.964Z,20.00
2018-06-13T17:27:50.430Z,20.00
2018-06-13T17:30:18.945Z,20.00
2018-06-13T17:32:49.113Z,20.00
2018-06-13T17:35:17.595Z,20.00
2018-06-13T17:37:47.788Z,20.10
2018-06-13T17:40:16.611Z,20.10
2018-06-13T17:42:45.153Z,20.10
2018-06-13T17:45:13.702Z,20.20
2018-06-13T17:47:42.320Z,20.10
2018-06-13T17:50:14.261Z,20.00
2018-06-13T17:52:42.821Z,20.00
2018-06-13T17:55:12.009Z,20.10
2018-06-13T17:57:40.469Z,20.10
2018-06-13T18:00:08.974Z,20.10
2018-06-13T18:02:38.398Z,20.10
2018-06-13T18:05:06.837Z,20.10
2018-06-13T18:07:35.312Z,20.00
2018-06-13T18:10:04.657Z,20.00
2018-06-13T18:12:33.134Z,20.00
2018-06-13T18:15:02.529Z,20.00
2018-06-13T18:17:31.086Z,20.00
2018-06-13T18:19:59.670Z,20.10
2018-06-13T18:22:28.196Z,20.10
2018-06-13T18:24:56.715Z,20.10
2018-06-13T18:27:25.160Z,20.00
2018-06-13T18:32:21.822Z,20.00
2018-06-13T18:34:50.222Z,20.00
2018-06-13T18:37:18.701Z,20.00
2018-06-13T18:39:47.203Z,20.00
2018-06-13T18:42:15.585Z,20.00
2018-06-13T18:44:44.141Z,20.00
2018-06-13T18:47:12.477Z,20.00
2018-06-13T18:49:41.041Z,20.00
2018-06-13T18:52:10.113Z,20.00
2018-06-13T18:54:38.591Z,20.00
2018-06-13T18:57:08.978Z,20.00
2018-06-13T18:59:37.752Z,20.00
2018-06-13T19:02:09.595Z,19.90
2018-06-13T19:04:38.067Z,19.90
2018-06-13T19:07:06.570Z,19.90
2018-06-13T19:09:36.051Z,19.90
2018-06-13T19:15:16.611Z,19.90
2018-06-13T19:17:45.090Z,19.80
2018-06-13T19:20:15.214Z,19.80
2018-06-13T19:22:51.695Z,19.80
2018-06-13T19:25:20.357Z,19.80
2018-06-13T19:27:48.844Z,19.80
2018-06-13T19:30:17.306Z,19.80
2018-06-13T19:32:45.713Z,19.80
2018-06-13T19:35:14.300Z,19.80
2018-06-13T19:37:42.699Z,19.80
2018-06-13T19:40:11.150Z,19.80
2018-06-13T19:42:49.948Z,19.70
2018-06-13T19:45:18.480Z,19.70
2018-06-13T19:47:52.120Z,19.70
2018-06-13T19:50:20.516Z,19.70
2018-06-13T19:52:55.719Z,19.60
2018-06-13T19:55:29.758Z,19.60
2018-06-13T19:58:00.504Z,19.60
2018-06-13T20:00:29.079Z,19.50
2018-06-13T20:03:02.851Z,19.50
2018-06-13T20:05:36.664Z,19.40
2018-06-13T20:08:05.429Z,19.40
2018-06-13T20:10:35.416Z,19.30
2018-06-13T20:15:44.558Z,19.20
2018-06-13T20:18:18.352Z,19.20
2018-06-13T20:20:47.386Z,19.10
2018-06-13T20:23:16.039Z,19.10
2018-06-13T20:25:49.824Z,19.00
2018-06-13T20:28:23.662Z,19.00
2018-06-13T20:30:57.535Z,19.00
2018-06-13T20:33:25.972Z,18.90
2018-06-13T20:35:54.892Z,18.80
2018-06-13T20:38:23.340Z,18.80
2018-06-13T20:40:51.765Z,18.80
2018-06-13T20:43:20.758Z,18.80
2018-06-13T20:45:49.253Z,18.80
2018-06-13T20:48:17.785Z,18.60
2018-06-13T20:50:46.162Z,18.50
2018-06-13T20:53:14.579Z,18.40
2018-06-13T20:55:43.074Z,18.30
2018-06-13T20:58:11.449Z,18.10
2018-06-13T21:00:39.981Z,18.00
2018-06-13T21:03:08.361Z,17.90
2018-06-13T21:05:36.737Z,17.90
2018-06-13T21:08:05.288Z,17.80
2018-06-13T21:10:33.641Z,17.80
2018-06-13T21:13:02.185Z,17.70
2018-06-13T21:15:30.623Z,17.60
2018-06-13T21:17:59.016Z,17.50
2018-06-13T21:20:27.497Z,17.40
2018-06-13T21:22:56.052Z,17.40
2018-06-13T21:25:24.826Z,17.30
2018-06-13T21:27:54.093Z,17.30
2018-06-13T21:30:22.518Z,17.30
2018-06-13T21:32:51.005Z,17.30
2018-06-13T21:35:19.466Z,17.30
2018-06-13T21:37:47.942Z,17.20
2018-06-13T21:40:16.398Z,17.20
2018-06-13T21:42:44.716Z,17.20
2018-06-13T21:45:13.083Z,17.20
2018-06-13T21:47:41.507Z,17.10
2018-06-13T21:50:11.010Z,17.10
2018-06-13T21:52:39.376Z,17.10
2018-06-13T21:55:07.822Z,17.10
2018-06-13T21:57:36.221Z,17.10
2018-06-13T22:00:07.323Z,17.10
2018-06-13T22:02:35.652Z,17.10
2018-06-13T22:05:04.047Z,17.10
2018-06-13T22:07:32.437Z,17.10
2018-06-13T22:10:00.866Z,17.20
2018-06-13T22:12:29.264Z,17.20
2018-06-13T22:14:59.894Z,17.20
2018-06-13T22:19:56.586Z,17.20
2018-06-13T22:22:24.962Z,17.20
2018-06-13T22:24:53.334Z,17.20
2018-06-13T22:27:21.695Z,17.10
2018-06-13T22:29:50.005Z,17.10
2018-06-13T22:32:18.475Z,17.10
2018-06-13T22:34:46.897Z,17.20
2018-06-13T22:37:15.364Z,17.20
2018-06-13T22:39:43.805Z,17.20
2018-06-13T22:42:12.166Z,17.20
2018-06-13T22:44:40.822Z,17.20
2018-06-13T22:47:09.164Z,17.20
2018-06-13T22:49:37.614Z,17.20
2018-06-13T22:52:06.225Z,17.20
2018-06-13T22:54:34.631Z,17.20
2018-06-13T22:57:03.222Z,17.20
2018-06-13T22:59:31.627Z,17.10
2018-06-13T23:02:00.119Z,17.10
2018-06-13T23:04:28.636Z,17.10
2018-06-13T23:06:57.108Z,17.10
2018-06-13T23:09:25.709Z,17.10
2018-06-13T23:11:54.139Z,17.10
2018-06-13T23:14:22.721Z,17.00
2018-06-13T23:16:51.239Z,17.00
2018-06-13T23:19:19.686Z,17.00
2018-06-13T23:21:48.047Z,17.00
2018-06-13T23:24:16.537Z,17.00
2018-06-13T23:29:13.049Z,16.90
2018-06-13T23:31:41.523Z,16.90
2018-06-13T23:34:10.045Z,16.90
2018-06-13T23:36:38.373Z,16.90
2018-06-13T23:39:07.553Z,16.80
2018-06-13T23:41:35.988Z,16.80
2018-06-13T23:44:04.590Z,16.80
2018-06-13T23:46:33.313Z,16.70
2018-06-13T23:49:01.633Z,16.70
2018-06-13T23:51:30.109Z,16.70
2018-06-13T23:53:58.591Z,16.70
2018-06-13T23:56:27.032Z,16.70
2018-06-13T23:58:55.420Z,16.70
